KSME/SME METAR and TAF weather

Enter ICAO airport designator
Station Type Date Time Source
KSME METAR 2022/06/28 15:35 UTC NOAA

KSME 281535Z AUTO 05007KT 020V080 10SM CLR 25/11 A3024 RMK AO2


Station Type Date Time Source
KSME Decoded METAR 2022/06/28 15:35 UTC NOAA

Somerset, Somerset-Pulaski County - J.T. Wilson Field Airport, KY, United States (KSME) 37-03-15N 084-36-54W
Jun 28, 2022 - 11:35 AM EDT / 2022.06.28 1535 UTC
Wind: from the NE (050 degrees) at 8 MPH (7 KT) (direction variable):0
Visibility: 10 mile(s):0
Sky conditions: clear
Temperature: 77 F (25 C)
Dew Point: 51 F (11 C)
Relative Humidity: 41%
Pressure (altimeter): 30.24 in. Hg (1024 hPa)
ob: KSME 281535Z AUTO 05007KT 020V080 10SM CLR 25/11 A3024 RMK AO2
cycle: 15

Station Type Date Time Source
KSME TAF 2022/06/28 12:22 UTC NOAA

TAF KSME 281120Z 2812/2912 00000KT P6SM BKN250
FM281600 VRB05KT P6SM BKN250

Example: see airport list